sensor_id;sensor_type;location;lat;lon;timestamp;P1;P2;P0
62547;PMS7003;48602;45.192;5.722;2023-03-17T00:01:55;20.00;16.67;13.00
62547;PMS7003;48602;45.192;5.722;2023-03-17T00:04:21;15.33;15.33;13.00
62547;PMS7003;48602;45.192;5.722;2023-03-17T00:06:48;16.00;15.33;13.00
62547;PMS7003;48602;45.192;5.722;2023-03-17T00:09:14;22.33;16.67;13.33
62547;PMS7003;48602;45.192;5.722;2023-03-17T00:11:41;20.00;16.67;14.67
62547;PMS7003;48602;45.192;5.722;2023-03-17T00:14:08;20.33;18.33;15.00
62547;PMS7003;48602;45.192;5.722;2023-03-17T00:16:37;21.33;16.00;14.00
62547;PMS7003;48602;45.192;5.722;2023-03-17T00:19:06;13.00;12.67;11.00
62547;PMS7003;48602;45.192;5.722;2023-03-17T00:21:38;17.00;17.00;13.00
62547;PMS7003;48602;45.192;5.722;2023-03-17T00:24:04;18.33;17.67;14.00
62547;PMS7003;48602;45.192;5.722;2023-03-17T00:26:30;9.67;9.33;8.00
62547;PMS7003;48602;45.192;5.722;2023-03-17T00:28:56;16.00;12.33;9.67
62547;PMS7003;48602;45.192;5.722;2023-03-17T00:31:24;14.67;13.00;11.00
62547;PMS7003;48602;45.192;5.722;2023-03-17T00:33:53;13.33;12.00;9.33
62547;PMS7003;48602;45.192;5.722;2023-03-17T00:36:26;10.25;9.25;7.00
62547;PMS7003;48602;45.192;5.722;2023-03-17T00:38:54;9.00;7.75;6.25
62547;PMS7003;48602;45.192;5.722;2023-03-17T00:41:21;10.00;8.25;6.00
62547;PMS7003;48602;45.192;5.722;2023-03-17T00:43:47;10.25;8.75;7.00
62547;PMS7003;48602;45.192;5.722;2023-03-17T00:48:52;4.67;4.67;4.00
62547;PMS7003;48602;45.192;5.722;2023-03-17T00:51:18;9.75;9.25;7.00
62547;PMS7003;48602;45.192;5.722;2023-03-17T00:53:43;6.67;6.00;5.00
62547;PMS7003;48602;45.192;5.722;2023-03-17T00:56:13;8.67;6.00;4.00
62547;PMS7003;48602;45.192;5.722;2023-03-17T00:58:40;10.67;10.67;7.00
62547;PMS7003;48602;45.192;5.722;2023-03-17T01:01:06;7.50;7.00;5.50
62547;PMS7003;48602;45.192;5.722;2023-03-17T01:03:32;9.00;7.00;6.00
62547;PMS7003;48602;45.192;5.722;2023-03-17T01:05:58;9.33;8.00;6.00
62547;PMS7003;48602;45.192;5.722;2023-03-17T01:08:25;12.33;10.33;8.33
62547;PMS7003;48602;45.192;5.722;2023-03-17T01:10:52;11.33;10.33;7.00
62547;PMS7003;48602;45.192;5.722;2023-03-17T01:13:18;13.00;12.00;8.67
62547;PMS7003;48602;45.192;5.722;2023-03-17T01:15:44;6.00;6.00;5.00
62547;PMS7003;48602;45.192;5.722;2023-03-17T01:18:12;10.67;9.00;7.00
62547;PMS7003;48602;45.192;5.722;2023-03-17T01:20:39;3.75;3.75;3.50
62547;PMS7003;48602;45.192;5.722;2023-03-17T01:23:07;5.50;5.50;4.00
62547;PMS7003;48602;45.192;5.722;2023-03-17T01:25:33;6.33;6.00;5.33
62547;PMS7003;48602;45.192;5.722;2023-03-17T01:27:59;6.75;5.00;4.00
62547;PMS7003;48602;45.192;5.722;2023-03-17T01:32:51;11.33;10.33;9.00
62547;PMS7003;48602;45.192;5.722;2023-03-17T01:35:17;15.33;13.67;11.00
62547;PMS7003;48602;45.192;5.722;2023-03-17T01:37:43;13.00;13.00;10.00
62547;PMS7003;48602;45.192;5.722;2023-03-17T01:40:12;15.00;15.00;13.00
62547;PMS7003;48602;45.192;5.722;2023-03-17T01:42:50;15.67;14.00;11.33
62547;PMS7003;48602;45.192;5.722;2023-03-17T01:48:21;13.00;13.00;10.00
62547;PMS7003;48602;45.192;5.722;2023-03-17T01:50:48;10.33;7.67;6.67
62547;PMS7003;48602;45.192;5.722;2023-03-17T01:53:15;9.00;7.00;6.00
62547;PMS7003;48602;45.192;5.722;2023-03-17T01:55:40;5.75;5.50;4.50
62547;PMS7003;48602;45.192;5.722;2023-03-17T01:58:09;7.00;6.00;5.00
62547;PMS7003;48602;45.192;5.722;2023-03-17T02:00:36;5.25;5.25;4.75
62547;PMS7003;48602;45.192;5.722;2023-03-17T02:03:03;8.33;6.33;6.33
62547;PMS7003;48602;45.192;5.722;2023-03-17T02:05:30;8.00;6.33;5.00
62547;PMS7003;48602;45.192;5.722;2023-03-17T02:07:57;5.00;4.67;4.00
62547;PMS7003;48602;45.192;5.722;2023-03-17T02:10:23;9.33;8.00;6.00
62547;PMS7003;48602;45.192;5.722;2023-03-17T02:12:52;8.67;8.67;6.00
62547;PMS7003;48602;45.192;5.722;2023-03-17T02:15:20;12.67;12.67;10.33
62547;PMS7003;48602;45.192;5.722;2023-03-17T02:17:47;27.67;18.00;13.67
62547;PMS7003;48602;45.192;5.722;2023-03-17T02:22:42;19.33;18.00;14.00
62547;PMS7003;48602;45.192;5.722;2023-03-17T02:25:13;16.33;14.33;11.67
62547;PMS7003;48602;45.192;5.722;2023-03-17T02:27:44;14.33;12.67;11.00
62547;PMS7003;48602;45.192;5.722;2023-03-17T02:30:14;10.33;6.67;5.67
62547;PMS7003;48602;45.192;5.722;2023-03-17T02:32:41;5.67;5.67;5.00
62547;PMS7003;48602;45.192;5.722;2023-03-17T02:35:08;13.33;10.00;8.33
62547;PMS7003;48602;45.192;5.722;2023-03-17T02:37:34;6.00;6.00;5.33
62547;PMS7003;48602;45.192;5.722;2023-03-17T02:39:59;6.00;3.25;3.00
62547;PMS7003;48602;45.192;5.722;2023-03-17T02:42:26;5.00;5.00;4.00
62547;PMS7003;48602;45.192;5.722;2023-03-17T02:44:52;4.75;4.00;3.00
62547;PMS7003;48602;45.192;5.722;2023-03-17T02:47:18;3.75;2.75;2.75
62547;PMS7003;48602;45.192;5.722;2023-03-17T02:49:44;5.00;3.50;3.50
62547;PMS7003;48602;45.192;5.722;2023-03-17T02:52:10;2.25;2.25;2.00
62547;PMS7003;48602;45.192;5.722;2023-03-17T02:54:36;6.25;4.00;3.25
62547;PMS7003;48602;45.192;5.722;2023-03-17T02:57:02;3.75;3.00;2.00
62547;PMS7003;48602;45.192;5.722;2023-03-17T02:59:28;6.00;5.00;3.50
62547;PMS7003;48602;45.192;5.722;2023-03-17T03:01:53;7.25;5.50;4.00
62547;PMS7003;48602;45.192;5.722;2023-03-17T03:04:20;10.33;9.33;7.33
62547;PMS7003;48602;45.192;5.722;2023-03-17T03:06:46;12.00;10.33;9.67
62547;PMS7003;48602;45.192;5.722;2023-03-17T03:09:12;12.00;10.00;8.67
62547;PMS7003;48602;45.192;5.722;2023-03-17T03:11:38;11.00;10.00;7.33
62547;PMS7003;48602;45.192;5.722;2023-03-17T03:14:05;15.00;14.67;11.00
62547;PMS7003;48602;45.192;5.722;2023-03-17T03:16:32;13.00;11.00;8.00
62547;PMS7003;48602;45.192;5.722;2023-03-17T03:18:57;11.00;11.00;8.33
62547;PMS7003;48602;45.192;5.722;2023-03-17T03:21:23;8.25;5.50;5.25
62547;PMS7003;48602;45.192;5.722;2023-03-17T03:23:48;7.50;5.75;4.25
62547;PMS7003;48602;45.192;5.722;2023-03-17T03:26:14;5.75;5.75;5.75
62547;PMS7003;48602;45.192;5.722;2023-03-17T03:28:40;2.75;2.75;2.75
62547;PMS7003;48602;45.192;5.722;2023-03-17T03:31:06;3.50;3.25;3.25
62547;PMS7003;48602;45.192;5.722;2023-03-17T03:33:32;7.00;5.00;4.00
62547;PMS7003;48602;45.192;5.722;2023-03-17T03:35:57;5.75;4.50;3.50
62547;PMS7003;48602;45.192;5.722;2023-03-17T03:38:23;3.50;3.25;2.25
62547;PMS7003;48602;45.192;5.722;2023-03-17T03:40:49;4.75;3.50;3.50
62547;PMS7003;48602;45.192;5.722;2023-03-17T03:43:14;2.75;2.00;2.00
62547;PMS7003;48602;45.192;5.722;2023-03-17T03:45:40;3.00;2.00;2.00
62547;PMS7003;48602;45.192;5.722;2023-03-17T03:48:06;2.00;2.00;1.75
62547;PMS7003;48602;45.192;5.722;2023-03-17T03:50:31;2.00;2.00;1.50
62547;PMS7003;48602;45.192;5.722;2023-03-17T03:52:57;3.75;3.00;3.00
62547;PMS7003;48602;45.192;5.722;2023-03-17T03:55:22;3.75;2.00;2.00
62547;PMS7003;48602;45.192;5.722;2023-03-17T03:57:48;5.00;1.50;1.00
62547;PMS7003;48602;45.192;5.722;2023-03-17T04:00:13;3.25;2.50;1.00
62547;PMS7003;48602;45.192;5.722;2023-03-17T04:02:40;1.00;0.00;0.00
62547;PMS7003;48602;45.192;5.722;2023-03-17T04:05:07;2.00;2.00;2.00
62547;PMS7003;48602;45.192;5.722;2023-03-17T04:07:33;3.00;1.25;1.25
62547;PMS7003;48602;45.192;5.722;2023-03-17T04:10:00;3.75;2.00;1.50
62547;PMS7003;48602;45.192;5.722;2023-03-17T04:12:26;3.75;1.50;1.50
62547;PMS7003;48602;45.192;5.722;2023-03-17T04:14:51;5.50;3.50;2.50
62547;PMS7003;48602;45.192;5.722;2023-03-17T04:17:17;3.75;2.50;2.00
62547;PMS7003;48602;45.192;5.722;2023-03-17T04:19:42;4.50;2.25;2.00
62547;PMS7003;48602;45.192;5.722;2023-03-17T04:22:08;2.00;2.00;1.75
62547;PMS7003;48602;45.192;5.722;2023-03-17T04:24:35;4.00;2.00;2.00
62547;PMS7003;48602;45.192;5.722;2023-03-17T04:27:01;3.50;2.00;1.25
62547;PMS7003;48602;45.192;5.722;2023-03-17T04:29:27;1.75;1.75;1.00
62547;PMS7003;48602;45.192;5.722;2023-03-17T04:31:53;4.00;2.00;2.00
62547;PMS7003;48602;45.192;5.722;2023-03-17T04:34:18;1.50;1.00;1.00
62547;PMS7003;48602;45.192;5.722;2023-03-17T04:36:44;4.00;2.00;2.00
62547;PMS7003;48602;45.192;5.722;2023-03-17T04:39:11;3.00;3.00;2.25
62547;PMS7003;48602;45.192;5.722;2023-03-17T04:41:37;2.25;2.00;1.00
62547;PMS7003;48602;45.192;5.722;2023-03-17T04:44:02;1.50;1.50;1.50
62547;PMS7003;48602;45.192;5.722;2023-03-17T04:46:28;3.00;1.00;1.00
62547;PMS7003;48602;45.192;5.722;2023-03-17T04:48:55;1.00;1.00;1.00
62547;PMS7003;48602;45.192;5.722;2023-03-17T04:51:21;2.75;1.75;1.25
62547;PMS7003;48602;45.192;5.722;2023-03-17T04:53:46;2.50;1.00;1.00
62547;PMS7003;48602;45.192;5.722;2023-03-17T04:56:12;6.75;5.50;5.00
62547;PMS7003;48602;45.192;5.722;2023-03-17T04:58:38;3.25;3.25;3.00
62547;PMS7003;48602;45.192;5.722;2023-03-17T05:01:04;4.75;3.00;3.00
62547;PMS7003;48602;45.192;5.722;2023-03-17T05:03:30;5.50;5.00;3.00
62547;PMS7003;48602;45.192;5.722;2023-03-17T05:05:58;2.50;2.50;2.00
62547;PMS7003;48602;45.192;5.722;2023-03-17T05:08:24;2.00;2.00;1.75
62547;PMS7003;48602;45.192;5.722;2023-03-17T05:10:52;4.00;4.00;3.00
62547;PMS7003;48602;45.192;5.722;2023-03-17T05:13:18;7.50;6.50;5.50
62547;PMS7003;48602;45.192;5.722;2023-03-17T05:15:47;5.50;4.75;4.00
62547;PMS7003;48602;45.192;5.722;2023-03-17T05:18:14;6.33;6.33;5.33
62547;PMS7003;48602;45.192;5.722;2023-03-17T05:20:40;13.00;10.00;7.67
62547;PMS7003;48602;45.192;5.722;2023-03-17T05:23:06;11.67;7.67;6.33
62547;PMS7003;48602;45.192;5.722;2023-03-17T05:25:31;10.00;10.00;9.33
62547;PMS7003;48602;45.192;5.722;2023-03-17T05:27:57;10.00;10.00;7.67
62547;PMS7003;48602;45.192;5.722;2023-03-17T05:30:22;10.00;9.00;7.00
62547;PMS7003;48602;45.192;5.722;2023-03-17T05:32:49;13.33;10.00;9.67
62547;PMS7003;48602;45.192;5.722;2023-03-17T05:35:15;11.67;11.00;7.33
62547;PMS7003;48602;45.192;5.722;2023-03-17T05:37:41;9.67;9.00;7.33
62547;PMS7003;48602;45.192;5.722;2023-03-17T05:40:07;9.25;5.00;4.00
62547;PMS7003;48602;45.192;5.722;2023-03-17T05:42:33;10.33;10.33;9.00
62547;PMS7003;48602;45.192;5.722;2023-03-17T05:44:58;10.75;9.00;7.50
62547;PMS7003;48602;45.192;5.722;2023-03-17T05:47:24;17.00;10.67;8.67
62547;PMS7003;48602;45.192;5.722;2023-03-17T05:49:49;10.67;10.67;9.33
62547;PMS7003;48602;45.192;5.722;2023-03-17T05:52:15;4.25;4.25;3.25
62547;PMS7003;48602;45.192;5.722;2023-03-17T05:54:40;9.75;7.00;5.75
62547;PMS7003;48602;45.192;5.722;2023-03-17T05:57:06;8.67;8.67;6.00
62547;PMS7003;48602;45.192;5.722;2023-03-17T05:59:31;7.33;7.33;6.00
62547;PMS7003;48602;45.192;5.722;2023-03-17T06:01:57;8.00;5.75;5.00
62547;PMS7003;48602;45.192;5.722;2023-03-17T06:04:22;5.50;4.00;3.50
62547;PMS7003;48602;45.192;5.722;2023-03-17T06:06:48;7.50;5.00;4.00
62547;PMS7003;48602;45.192;5.722;2023-03-17T06:09:13;5.50;5.00;4.75
62547;PMS7003;48602;45.192;5.722;2023-03-17T06:11:39;9.00;6.00;5.50
62547;PMS7003;48602;45.192;5.722;2023-03-17T06:14:05;4.67;4.67;4.00
62547;PMS7003;48602;45.192;5.722;2023-03-17T06:16:31;5.50;5.00;4.00
62547;PMS7003;48602;45.192;5.722;2023-03-17T06:18:57;4.00;4.00;4.00
62547;PMS7003;48602;45.192;5.722;2023-03-17T06:21:23;2.75;2.50;1.25
62547;PMS7003;48602;45.192;5.722;2023-03-17T06:23:48;7.25;6.00;5.25
62547;PMS7003;48602;45.192;5.722;2023-03-17T06:26:13;4.75;3.00;2.50
62547;PMS7003;48602;45.192;5.722;2023-03-17T06:28:39;5.00;3.25;3.00
62547;PMS7003;48602;45.192;5.722;2023-03-17T06:31:04;3.75;3.00;2.00
62547;PMS7003;48602;45.192;5.722;2023-03-17T06:33:29;4.00;1.50;1.00
62547;PMS7003;48602;45.192;5.722;2023-03-17T06:35:55;5.00;5.00;5.00
62547;PMS7003;48602;45.192;5.722;2023-03-17T06:38:22;11.00;11.00;10.00
62547;PMS7003;48602;45.192;5.722;2023-03-17T06:40:48;11.00;11.00;11.00
62547;PMS7003;48602;45.192;5.722;2023-03-17T06:43:14;16.00;12.67;11.00
62547;PMS7003;48602;45.192;5.722;2023-03-17T06:45:39;15.67;13.33;10.33
62547;PMS7003;48602;45.192;5.722;2023-03-17T06:48:05;12.00;12.00;10.67
62547;PMS7003;48602;45.192;5.722;2023-03-17T06:50:31;17.67;12.33;11.00
62547;PMS7003;48602;45.192;5.722;2023-03-17T06:52:57;19.33;14.67;12.00
62547;PMS7003;48602;45.192;5.722;2023-03-17T06:55:22;7.25;7.00;6.00
62547;PMS7003;48602;45.192;5.722;2023-03-17T06:57:48;7.33;7.33;6.00
62547;PMS7003;48602;45.192;5.722;2023-03-17T07:00:13;9.75;6.00;5.00
62547;PMS7003;48602;45.192;5.722;2023-03-17T07:02:39;10.00;9.33;7.67
62547;PMS7003;48602;45.192;5.722;2023-03-17T07:05:05;8.67;5.33;5.00
62547;PMS7003;48602;45.192;5.722;2023-03-17T07:07:32;10.25;8.75;5.75
62547;PMS7003;48602;45.192;5.722;2023-03-17T07:09:59;10.00;7.50;5.00
62547;PMS7003;48602;45.192;5.722;2023-03-17T07:12:25;5.00;3.00;3.00
62547;PMS7003;48602;45.192;5.722;2023-03-17T07:14:51;6.75;5.00;4.50
62547;PMS7003;48602;45.192;5.722;2023-03-17T07:17:16;3.50;2.75;2.75
62547;PMS7003;48602;45.192;5.722;2023-03-17T07:19:43;5.00;2.75;2.50
62547;PMS7003;48602;45.192;5.722;2023-03-17T07:22:12;4.00;3.00;3.00
62547;PMS7003;48602;45.192;5.722;2023-03-17T07:24:37;10.00;10.00;7.67
62547;PMS7003;48602;45.192;5.722;2023-03-17T07:27:03;20.33;18.33;15.33
62547;PMS7003;48602;45.192;5.722;2023-03-17T07:29:29;19.33;13.33;11.67
62547;PMS7003;48602;45.192;5.722;2023-03-17T07:31:56;16.67;12.33;10.33
62547;PMS7003;48602;45.192;5.722;2023-03-17T07:34:21;18.33;16.33;14.33
62547;PMS7003;48602;45.192;5.722;2023-03-17T07:36:47;20.33;19.00;15.00
62547;PMS7003;48602;45.192;5.722;2023-03-17T07:39:12;20.67;18.33;14.67
62547;PMS7003;48602;45.192;5.722;2023-03-17T07:41:38;19.33;18.00;14.00
62547;PMS7003;48602;45.192;5.722;2023-03-17T07:44:03;17.67;14.33;13.00
62547;PMS7003;48602;45.192;5.722;2023-03-17T07:46:29;19.33;17.33;13.33
62547;PMS7003;48602;45.192;5.722;2023-03-17T07:48:54;21.67;18.33;15.00
62547;PMS7003;48602;45.192;5.722;2023-03-17T07:51:20;16.00;13.67;11.33
62547;PMS7003;48602;45.192;5.722;2023-03-17T07:53:50;15.00;14.00;13.00
62547;PMS7003;48602;45.192;5.722;2023-03-17T07:56:15;18.33;15.33;13.67
62547;PMS7003;48602;45.192;5.722;2023-03-17T07:58:41;16.00;14.33;11.00
62547;PMS7003;48602;45.192;5.722;2023-03-17T08:01:07;14.00;14.00;11.33
62547;PMS7003;48602;45.192;5.722;2023-03-17T08:03:33;13.00;12.00;11.00
62547;PMS7003;48602;45.192;5.722;2023-03-17T08:06:01;10.00;8.33;8.00
62547;PMS7003;48602;45.192;5.722;2023-03-17T08:08:27;8.25;8.25;6.50
62547;PMS7003;48602;45.192;5.722;2023-03-17T08:10:57;16.00;16.00;14.00
62547;PMS7003;48602;45.192;5.722;2023-03-17T08:13:27;15.67;12.00;11.00
62547;PMS7003;48602;45.192;5.722;2023-03-17T08:15:53;18.00;13.33;10.67
62547;PMS7003;48602;45.192;5.722;2023-03-17T08:18:22;13.67;13.00;10.67
62547;PMS7003;48602;45.192;5.722;2023-03-17T08:20:48;15.67;14.00;13.00
62547;PMS7003;48602;45.192;5.722;2023-03-17T08:23:13;14.33;11.00;8.33
62547;PMS7003;48602;45.192;5.722;2023-03-17T08:25:39;13.67;12.00;8.33
62547;PMS7003;48602;45.192;5.722;2023-03-17T08:28:04;16.67;12.67;8.67
62547;PMS7003;48602;45.192;5.722;2023-03-17T08:30:30;9.25;9.25;8.00
62547;PMS7003;48602;45.192;5.722;2023-03-17T08:32:56;5.00;5.00;5.00
62547;PMS7003;48602;45.192;5.722;2023-03-17T08:35:22;5.75;5.00;3.75
62547;PMS7003;48602;45.192;5.722;2023-03-17T08:37:48;7.50;7.00;6.00
62547;PMS7003;48602;45.192;5.722;2023-03-17T08:40:14;7.00;6.25;4.25
62547;PMS7003;48602;45.192;5.722;2023-03-17T08:42:41;3.50;3.50;3.25
62547;PMS7003;48602;45.192;5.722;2023-03-17T08:45:08;4.00;4.00;3.00
62547;PMS7003;48602;45.192;5.722;2023-03-17T08:47:35;3.50;3.00;3.00
62547;PMS7003;48602;45.192;5.722;2023-03-17T08:50:02;5.00;3.00;3.00
62547;PMS7003;48602;45.192;5.722;2023-03-17T08:52:30;3.25;3.00;3.00
62547;PMS7003;48602;45.192;5.722;2023-03-17T08:54:56;3.00;3.00;3.00
62547;PMS7003;48602;45.192;5.722;2023-03-17T08:57:22;3.00;2.75;2.00
62547;PMS7003;48602;45.192;5.722;2023-03-17T08:59:48;2.00;2.00;1.50
62547;PMS7003;48602;45.192;5.722;2023-03-17T09:02:16;2.75;2.75;2.00
62547;PMS7003;48602;45.192;5.722;2023-03-17T09:04:42;2.75;2.00;2.00
62547;PMS7003;48602;45.192;5.722;2023-03-17T09:07:07;3.00;3.00;2.00
62547;PMS7003;48602;45.192;5.722;2023-03-17T09:09:34;2.00;1.50;1.25
62547;PMS7003;48602;45.192;5.722;2023-03-17T09:12:02;2.00;1.75;1.75
62547;PMS7003;48602;45.192;5.722;2023-03-17T09:14:30;3.00;3.00;2.00
62547;PMS7003;48602;45.192;5.722;2023-03-17T09:16:56;1.00;1.00;1.00
62547;PMS7003;48602;45.192;5.722;2023-03-17T09:19:22;1.75;1.75;1.00
62547;PMS7003;48602;45.192;5.722;2023-03-17T09:21:47;2.00;2.00;2.00
62547;PMS7003;48602;45.192;5.722;2023-03-17T09:24:14;1.75;1.75;1.75
62547;PMS7003;48602;45.192;5.722;2023-03-17T09:26:39;2.75;2.75;2.00
62547;PMS7003;48602;45.192;5.722;2023-03-17T09:29:05;2.25;2.25;2.25
62547;PMS7003;48602;45.192;5.722;2023-03-17T09:31:32;1.00;1.00;1.00
62547;PMS7003;48602;45.192;5.722;2023-03-17T09:33:58;1.75;0.75;0.75
62547;PMS7003;48602;45.192;5.722;2023-03-17T09:36:23;3.75;1.75;1.75
62547;PMS7003;48602;45.192;5.722;2023-03-17T09:38:50;1.20;1.20;0.00
62547;PMS7003;48602;45.192;5.722;2023-03-17T09:49:46;4.00;2.00;1.25
62547;PMS7003;48602;45.192;5.722;2023-03-17T09:52:16;1.50;1.50;1.25
62547;PMS7003;48602;45.192;5.722;2023-03-17T09:54:46;3.25;2.25;2.25
62547;PMS7003;48602;45.192;5.722;2023-03-17T10:00:00;4.00;2.60;2.40
62547;PMS7003;48602;45.192;5.722;2023-03-17T10:02:35;2.00;1.00;1.00
62547;PMS7003;48602;45.192;5.722;2023-03-17T10:05:21;2.00;1.75;1.00
62547;PMS7003;48602;45.192;5.722;2023-03-17T10:15:46;6.75;4.75;4.50
62547;PMS7003;48602;45.192;5.722;2023-03-17T10:18:18;4.50;4.00;3.50
62547;PMS7003;48602;45.192;5.722;2023-03-17T10:20:59;1.60;1.60;1.60
62547;PMS7003;48602;45.192;5.722;2023-03-17T10:23:32;1.75;1.75;1.25
62547;PMS7003;48602;45.192;5.722;2023-03-17T10:26:06;2.00;2.00;2.00
62547;PMS7003;48602;45.192;5.722;2023-03-17T10:28:44;3.00;2.00;1.50
62547;PMS7003;48602;45.192;5.722;2023-03-17T10:31:13;4.00;1.25;0.75
62547;PMS7003;48602;45.192;5.722;2023-03-17T10:33:43;3.25;3.25;2.25
62547;PMS7003;48602;45.192;5.722;2023-03-17T10:36:14;3.25;3.25;2.75
62547;PMS7003;48602;45.192;5.722;2023-03-17T10:38:50;2.00;1.80;1.00
62547;PMS7003;48602;45.192;5.722;2023-03-17T10:41:18;2.80;2.00;1.60
62547;PMS7003;48602;45.192;5.722;2023-03-17T10:43:45;0.75;0.75;0.75
62547;PMS7003;48602;45.192;5.722;2023-03-17T10:49:01;4.60;1.80;1.80
62547;PMS7003;48602;45.192;5.722;2023-03-17T10:51:34;2.00;1.00;1.00
62547;PMS7003;48602;45.192;5.722;2023-03-17T10:54:01;1.60;1.20;1.00
62547;PMS7003;48602;45.192;5.722;2023-03-17T10:56:38;1.40;1.00;1.00
62547;PMS7003;48602;45.192;5.722;2023-03-17T10:59:07;1.00;1.00;1.00
62547;PMS7003;48602;45.192;5.722;2023-03-17T11:01:46;2.20;2.00;2.00
62547;PMS7003;48602;45.192;5.722;2023-03-17T11:04:31;3.80;1.00;1.00
62547;PMS7003;48602;45.192;5.722;2023-03-17T11:06:59;3.00;2.00;1.50
62547;PMS7003;48602;45.192;5.722;2023-03-17T11:09:39;2.00;0.80;0.40
62547;PMS7003;48602;45.192;5.722;2023-03-17T11:12:09;3.00;1.20;1.00
62547;PMS7003;48602;45.192;5.722;2023-03-17T11:14:43;1.80;1.80;1.40
62547;PMS7003;48602;45.192;5.722;2023-03-17T11:17:17;0.40;0.00;0.00
62547;PMS7003;48602;45.192;5.722;2023-03-17T11:20:19;1.00;0.40;0.20
62547;PMS7003;48602;45.192;5.722;2023-03-17T11:25:48;2.00;2.00;2.00
62547;PMS7003;48602;45.192;5.722;2023-03-17T11:28:23;1.00;1.00;1.00
62547;PMS7003;48602;45.192;5.722;2023-03-17T11:39:26;1.00;1.00;1.00
62547;PMS7003;48602;45.192;5.722;2023-03-17T11:45:26;0.00;0.00;0.00
62547;PMS7003;48602;45.192;5.722;2023-03-17T11:50:54;0.00;0.00;0.00
62547;PMS7003;48602;45.192;5.722;2023-03-17T11:59:18;0.00;0.00;0.00
62547;PMS7003;48602;45.192;5.722;2023-03-17T12:01:53;4.00;1.60;1.40
62547;PMS7003;48602;45.192;5.722;2023-03-17T12:04:29;1.00;1.00;1.00
62547;PMS7003;48602;45.192;5.722;2023-03-17T12:07:01;1.20;1.00;1.00
62547;PMS7003;48602;45.192;5.722;2023-03-17T12:09:34;1.80;1.80;1.40
62547;PMS7003;48602;45.192;5.722;2023-03-17T12:12:03;1.00;1.00;0.60
62547;PMS7003;48602;45.192;5.722;2023-03-17T12:14:44;0.80;0.80;0.60
62547;PMS7003;48602;45.192;5.722;2023-03-17T12:19:52;2.20;2.00;2.00
62547;PMS7003;48602;45.192;5.722;2023-03-17T12:27:42;2.40;2.00;2.00
62547;PMS7003;48602;45.192;5.722;2023-03-17T12:30:30;3.00;3.00;2.80
62547;PMS7003;48602;45.192;5.722;2023-03-17T12:33:18;3.25;3.25;3.00
62547;PMS7003;48602;45.192;5.722;2023-03-17T12:35:45;2.60;2.00;2.00
62547;PMS7003;48602;45.192;5.722;2023-03-17T12:51:37;1.00;1.00;1.00
62547;PMS7003;48602;45.192;5.722;2023-03-17T12:54:18;1.00;1.00;1.00
62547;PMS7003;48602;45.192;5.722;2023-03-17T12:57:19;4.00;3.00;2.00
62547;PMS7003;48602;45.192;5.722;2023-03-17T12:59:47;3.00;2.00;2.00
62547;PMS7003;48602;45.192;5.722;2023-03-17T13:04:53;3.20;2.00;1.80
62547;PMS7003;48602;45.192;5.722;2023-03-17T13:18:19;0.40;0.40;0.40
62547;PMS7003;48602;45.192;5.722;2023-03-17T13:23:25;2.00;2.00;1.80
62547;PMS7003;48602;45.192;5.722;2023-03-17T13:25:59;2.50;1.00;1.00
62547;PMS7003;48602;45.192;5.722;2023-03-17T13:33:41;3.00;2.00;2.00
62547;PMS7003;48602;45.192;5.722;2023-03-17T13:36:15;1.00;1.00;1.00
62547;PMS7003;48602;45.192;5.722;2023-03-17T13:41:50;2.20;2.20;2.00
62547;PMS7003;48602;45.192;5.722;2023-03-17T13:47:08;3.00;2.00;2.00
62547;PMS7003;48602;45.192;5.722;2023-03-17T13:49:44;1.80;1.80;1.80
62547;PMS7003;48602;45.192;5.722;2023-03-17T13:52:13;1.80;1.80;1.20
62547;PMS7003;48602;45.192;5.722;2023-03-17T13:55:04;3.00;2.00;2.00
62547;PMS7003;48602;45.192;5.722;2023-03-17T14:00:35;4.00;2.80;2.60
62547;PMS7003;48602;45.192;5.722;2023-03-17T14:03:04;2.00;2.00;1.60
62547;PMS7003;48602;45.192;5.722;2023-03-17T14:05:39;1.00;1.00;1.00
62547;PMS7003;48602;45.192;5.722;2023-03-17T14:10:59;1.00;1.00;1.00
62547;PMS7003;48602;45.192;5.722;2023-03-17T14:16:25;2.00;2.00;1.40
62547;PMS7003;48602;45.192;5.722;2023-03-17T14:18:58;1.20;1.20;1.20
62547;PMS7003;48602;45.192;5.722;2023-03-17T14:21:34;2.00;2.00;2.00
62547;PMS7003;48602;45.192;5.722;2023-03-17T14:24:01;4.60;2.00;1.60
62547;PMS7003;48602;45.192;5.722;2023-03-17T14:26:40;2.00;2.00;1.60
62547;PMS7003;48602;45.192;5.722;2023-03-17T14:29:06;3.00;2.00;1.25
62547;PMS7003;48602;45.192;5.722;2023-03-17T14:31:33;1.00;1.00;1.00
62547;PMS7003;48602;45.192;5.722;2023-03-17T14:33:59;3.00;1.00;1.00
62547;PMS7003;48602;45.192;5.722;2023-03-17T14:36:26;1.00;1.00;1.00
62547;PMS7003;48602;45.192;5.722;2023-03-17T14:38:53;3.00;2.00;1.00
62547;PMS7003;48602;45.192;5.722;2023-03-17T14:41:21;3.00;3.00;2.00
62547;PMS7003;48602;45.192;5.722;2023-03-17T14:43:57;2.20;2.20;2.00
62547;PMS7003;48602;45.192;5.722;2023-03-17T14:49:14;1.60;1.60;1.40
62547;PMS7003;48602;45.192;5.722;2023-03-17T14:51:47;2.80;2.00;2.00
62547;PMS7003;48602;45.192;5.722;2023-03-17T14:54:17;1.60;1.40;1.40
62547;PMS7003;48602;45.192;5.722;2023-03-17T14:56:47;1.20;1.20;1.00
62547;PMS7003;48602;45.192;5.722;2023-03-17T15:02:16;1.20;0.60;0.40
62547;PMS7003;48602;45.192;5.722;2023-03-17T15:04:50;1.00;1.00;1.00
62547;PMS7003;48602;45.192;5.722;2023-03-17T15:07:30;1.00;1.00;1.00
62547;PMS7003;48602;45.192;5.722;2023-03-17T15:10:02;1.40;1.40;1.00
62547;PMS7003;48602;45.192;5.722;2023-03-17T15:12:29;1.00;1.00;1.00
62547;PMS7003;48602;45.192;5.722;2023-03-17T15:14:57;2.80;2.00;1.20
62547;PMS7003;48602;45.192;5.722;2023-03-17T15:17:27;1.00;1.00;1.00
62547;PMS7003;48602;45.192;5.722;2023-03-17T15:19:56;2.20;1.00;1.00
62547;PMS7003;48602;45.192;5.722;2023-03-17T15:22:30;2.00;2.00;1.80
62547;PMS7003;48602;45.192;5.722;2023-03-17T15:25:18;2.40;1.00;1.00
62547;PMS7003;48602;45.192;5.722;2023-03-17T15:27:48;4.80;3.80;3.20
62547;PMS7003;48602;45.192;5.722;2023-03-17T15:30:15;1.20;1.20;1.00
62547;PMS7003;48602;45.192;5.722;2023-03-17T15:32:41;2.00;2.00;1.80
62547;PMS7003;48602;45.192;5.722;2023-03-17T15:35:10;1.00;0.75;0.50
62547;PMS7003;48602;45.192;5.722;2023-03-17T15:37:37;1.80;1.80;1.00
62547;PMS7003;48602;45.192;5.722;2023-03-17T15:40:03;0.00;0.00;0.00
62547;PMS7003;48602;45.192;5.722;2023-03-17T15:42:31;1.00;1.00;1.00
62547;PMS7003;48602;45.192;5.722;2023-03-17T15:44:59;2.00;2.00;1.80
62547;PMS7003;48602;45.192;5.722;2023-03-17T15:47:29;2.60;2.00;2.00
62547;PMS7003;48602;45.192;5.722;2023-03-17T15:50:11;0.75;0.75;0.00
62547;PMS7003;48602;45.192;5.722;2023-03-17T15:52:37;2.00;0.20;0.20
62547;PMS7003;48602;45.192;5.722;2023-03-17T15:55:05;3.50;3.00;2.25
62547;PMS7003;48602;45.192;5.722;2023-03-17T15:57:40;4.20;2.20;2.20
62547;PMS7003;48602;45.192;5.722;2023-03-17T16:00:06;3.00;2.00;2.00
62547;PMS7003;48602;45.192;5.722;2023-03-17T16:02:33;2.00;2.00;2.00
62547;PMS7003;48602;45.192;5.722;2023-03-17T16:05:00;0.20;0.20;0.20
62547;PMS7003;48602;45.192;5.722;2023-03-17T16:07:31;5.80;2.00;2.00
62547;PMS7003;48602;45.192;5.722;2023-03-17T16:09:57;1.00;1.00;1.00
62547;PMS7003;48602;45.192;5.722;2023-03-17T16:12:23;1.25;1.25;1.00
62547;PMS7003;48602;45.192;5.722;2023-03-17T16:14:49;2.00;2.00;2.00
62547;PMS7003;48602;45.192;5.722;2023-03-17T16:17:24;1.40;1.40;1.40
62547;PMS7003;48602;45.192;5.722;2023-03-17T16:19:53;1.60;1.60;1.20